Time;durP1;ratioP1;P1;durP2;ratioP2;P2;SDS_P1;SDS_P2;PMS_P1;PMS_P2;Temp;Humidity;BMP_temperature;BMP_pressure;BME280_temperature;BME280_humidity;BME280_pressure;Samples;Min_cycle;Max_cycle;Signal;HPM_P1;HPM_P2
2023/10/01 00:03:28;;;;;;;8.13;3.43;;;;;11.90;101903.00;;;;10331621;28;20211;-84
2023/10/01 00:08:30;;;;;;;6.97;4.00;;;;;11.90;101901.00;;;;10333435;28;20234;-85
2023/10/01 00:13:31;;;;;;;8.80;3.53;;;;;11.80;101898.00;;;;10323785;28;20207;-85
2023/10/01 00:18:34;;;;;;;7.27;3.30;;;;;11.80;101895.00;;;;10324980;28;20199;-86
2023/10/01 00:23:36;;;;;;;10.20;3.67;;;;;11.70;101891.00;;;;10347377;28;20203;-78
2023/10/01 00:28:38;;;;;;;9.47;3.50;;;;;11.70;101891.00;;;;10314382;28;20227;-78
2023/10/01 00:33:42;;;;;;;6.00;3.20;;;;;11.60;101892.00;;;;10340433;28;20297;-79
2023/10/01 00:38:45;;;;;;;9.77;4.37;;;;;11.70;101903.00;;;;10312125;28;20215;-79
2023/10/01 00:43:47;;;;;;;6.80;3.50;;;;;11.70;101900.00;;;;10315409;28;20261;-78
2023/10/01 00:48:49;;;;;;;9.93;4.03;;;;;11.70;101894.00;;;;10307511;28;20226;-81
2023/10/01 00:53:52;;;;;;;10.50;4.40;;;;;11.70;101896.00;;;;10312578;28;20212;-78
2023/10/01 00:58:54;;;;;;;12.93;4.97;;;;;11.60;101899.00;;;;10334158;28;20585;-80
2023/10/01 01:03:56;;;;;;;9.20;4.37;;;;;11.60;101894.00;;;;10315526;28;20203;-80
2023/10/01 01:08:58;;;;;;;10.57;4.43;;;;;11.70;101885.00;;;;10338881;28;20799;-80
2023/10/01 01:14:01;;;;;;;11.30;4.13;;;;;11.70;101886.00;;;;10313863;28;20654;-78
2023/10/01 01:19:03;;;;;;;7.80;4.47;;;;;11.60;101881.00;;;;10318318;28;20204;-78
2023/10/01 01:24:07;;;;;;;8.67;4.10;;;;;11.70;101883.00;;;;10348318;28;20876;-79
2023/10/01 01:29:29;;;;;;;7.87;4.53;;;;;11.70;101883.00;;;;10313120;28;20251;-78
2023/10/01 01:34:31;;;;;;;8.40;4.33;;;;;11.70;101863.00;;;;10335165;28;21206;-79
2023/10/01 01:39:48;;;;;;;9.83;4.90;;;;;11.70;101851.00;;;;10347846;28;20207;-78
2023/10/01 01:50:19;;;;;;;11.53;4.90;;;;;11.60;101844.00;;;;10331855;28;20223;-79
2023/10/01 01:55:26;;;;;;;10.50;4.53;;;;;11.60;101838.00;;;;10334158;28;20298;-79
2023/10/01 02:00:31;;;;;;;10.43;4.87;;;;;11.50;101835.00;;;;10307144;28;20200;-79
2023/10/01 02:05:34;;;;;;;11.90;4.30;;;;;11.40;101840.00;;;;10318852;28;20208;-79
2023/10/01 02:10:46;;;;;;;8.73;4.83;;;;;11.40;101838.00;;;;10311610;28;20282;-82
2023/10/01 02:15:50;;;;;;;9.90;4.27;;;;;11.30;101824.00;;;;10310553;28;20200;-83
2023/10/01 02:20:56;;;;;;;7.53;4.30;;;;;11.20;101819.00;;;;10336721;28;20677;-82
2023/10/01 02:26:00;;;;;;;10.77;4.90;;;;;11.20;101822.00;;;;10309151;28;20224;-83
2023/10/01 02:31:08;;;;;;;8.40;4.47;;;;;11.10;101821.00;;;;10320178;28;20547;-83
2023/10/01 02:36:12;;;;;;;10.37;5.13;;;;;11.10;101810.00;;;;10307516;28;20796;-82
2023/10/01 02:41:15;;;;;;;9.17;5.30;;;;;11.00;101812.00;;;;10329911;28;20211;-82
2023/10/01 02:46:26;;;;;;;8.87;5.17;;;;;11.10;101808.00;;;;10313678;28;20200;-82
2023/10/01 02:51:37;;;;;;;14.80;5.80;;;;;11.30;101813.00;;;;10307959;28;20299;-82
2023/10/01 02:56:52;;;;;;;9.67;5.23;;;;;11.40;101808.00;;;;10351111;28;20210;-82
2023/10/01 03:01:55;;;;;;;11.53;6.43;;;;;11.60;101810.00;;;;10328369;28;20195;-82
2023/10/01 03:06:57;;;;;;;13.33;5.97;;;;;11.70;101819.00;;;;10338117;28;20212;-82
2023/10/01 03:17:21;;;;;;;12.77;6.57;;;;;11.80;101814.00;;;;10332666;28;20896;-83
2023/10/01 03:22:23;;;;;;;11.87;7.10;;;;;11.90;101805.00;;;;10308641;28;20223;-78
2023/10/01 03:27:27;;;;;;;16.10;7.33;;;;;12.00;101807.00;;;;10344073;28;20638;-79
2023/10/01 03:32:29;;;;;;;14.20;7.20;;;;;12.00;101805.00;;;;10304875;28;20212;-79
2023/10/01 03:37:38;;;;;;;15.23;6.93;;;;;12.10;101815.00;;;;10330739;28;20223;-80
2023/10/01 03:42:49;;;;;;;15.07;6.83;;;;;12.10;101801.00;;;;10324054;28;20650;-78
2023/10/01 03:47:58;;;;;;;14.67;6.93;;;;;12.20;101806.00;;;;10331406;28;20693;-78
2023/10/01 03:53:10;;;;;;;16.67;7.90;;;;;12.10;101798.00;;;;10317391;28;20222;-79
2023/10/01 03:58:25;;;;;;;15.07;7.30;;;;;12.20;101795.00;;;;10340399;28;20218;-77
2023/10/01 04:03:38;;;;;;;18.73;7.13;;;;;12.20;101797.00;;;;10302006;28;21127;-80
2023/10/01 04:08:44;;;;;;;13.47;6.40;;;;;12.30;101786.00;;;;10333733;28;20600;-78
2023/10/01 04:14:07;;;;;;;17.23;7.60;;;;;12.30;101795.00;;;;10325732;28;20207;-78
2023/10/01 04:19:11;;;;;;;15.50;6.80;;;;;12.30;101789.00;;;;10325908;28;20222;-79
2023/10/01 04:24:13;;;;;;;14.67;7.23;;;;;12.30;101799.00;;;;10319674;28;20204;-79
2023/10/01 04:29:18;;;;;;;14.37;6.73;;;;;12.40;101804.00;;;;10315039;28;20227;-82
2023/10/01 04:34:23;;;;;;;13.00;7.27;;;;;12.40;101798.00;;;;10322185;28;20212;-82
2023/10/01 04:39:25;;;;;;;13.53;7.07;;;;;12.40;101801.00;;;;10335934;28;20227;-83
2023/10/01 04:44:30;;;;;;;12.60;6.70;;;;;12.60;101795.00;;;;10339979;28;20203;-82
2023/10/01 04:49:41;;;;;;;15.47;6.57;;;;;12.60;101799.00;;;;10367317;28;20204;-81
2023/10/01 04:54:45;;;;;;;14.03;7.60;;;;;12.60;101799.00;;;;10327339;28;20242;-83
2023/10/01 05:00:10;;;;;;;16.00;7.80;;;;;12.50;101798.00;;;;10333057;28;20220;-83
2023/10/01 05:05:09;;;;;;;13.23;6.80;;;;;12.50;101801.00;;;;10343494;28;20204;-81
2023/10/01 05:10:13;;;;;;;12.30;6.43;;;;;12.40;101799.00;;;;10316789;28;20296;-82
2023/10/01 05:15:17;;;;;;;13.57;7.40;;;;;12.40;101807.00;;;;10348866;28;20203;-82
2023/10/01 05:20:20;;;;;;;14.80;7.57;;;;;12.40;101814.00;;;;10344539;28;20913;-82
2023/10/01 05:25:24;;;;;;;15.33;7.30;;;;;12.40;101812.00;;;;10308154;28;20222;-83
2023/10/01 05:30:39;;;;;;;13.93;7.50;;;;;12.40;101820.00;;;;10332728;28;20208;-82
2023/10/01 05:35:44;;;;;;;16.23;7.37;;;;;12.40;101821.00;;;;10338457;28;20570;-83
2023/10/01 05:40:52;;;;;;;12.33;7.47;;;;;12.40;101819.00;;;;10310909;28;20220;-77
2023/10/01 05:46:01;;;;;;;20.47;7.60;;;;;12.50;101800.00;;;;10324679;28;20573;-76
2023/10/01 05:51:06;;;;;;;14.90;7.87;;;;;12.50;101808.00;;;;10319200;28;20218;-78
2023/10/01 05:56:10;;;;;;;16.73;7.43;;;;;12.60;101813.00;;;;10322947;28;20214;-76
2023/10/01 06:01:16;;;;;;;15.00;6.77;;;;;12.60;101812.00;;;;10328922;28;20327;-76
2023/10/01 06:06:25;;;;;;;18.57;7.27;;;;;12.60;101806.00;;;;10318539;28;20673;-79
2023/10/01 06:11:38;;;;;;;17.17;7.07;;;;;12.70;101815.00;;;;10343623;28;20199;-80
2023/10/01 06:16:40;;;;;;;17.27;7.33;;;;;12.90;101816.00;;;;10324930;28;20201;-76
2023/10/01 06:21:44;;;;;;;16.30;7.23;;;;;13.10;101811.00;;;;10311611;28;20216;-77
2023/10/01 06:26:46;;;;;;;16.85;7.97;;;;;13.30;101810.00;;;;10333645;28;20223;-80
2023/10/01 06:31:48;;;;;;;15.27;7.20;;;;;13.40;101813.00;;;;10323329;28;20208;-77
2023/10/01 06:37:00;;;;;;;15.48;7.63;;;;;13.60;101805.00;;;;10323141;28;20207;-77
2023/10/01 06:42:18;;;;;;;16.45;7.50;;;;;13.80;101798.00;;;;10333104;28;20231;-77
2023/10/01 06:47:25;;;;;;;15.82;7.25;;;;;14.00;101803.00;;;;10324355;28;20205;-76
2023/10/01 06:52:32;;;;;;;13.95;8.15;;;;;14.10;101794.00;;;;10299021;28;20207;-77
2023/10/01 06:57:36;;;;;;;13.30;7.22;;;;;14.30;101798.00;;;;10331367;28;20210;-79
2023/10/01 07:02:39;;;;;;;13.60;7.82;;;;;14.50;101796.00;;;;10351032;28;20211;-81
2023/10/01 07:07:42;;;;;;;15.63;7.13;;;;;14.80;101804.00;;;;10317479;28;20226;-81
2023/10/01 07:12:57;;;;;;;12.50;6.88;;;;;15.00;101814.00;;;;10326802;28;20236;-82
2023/10/01 07:18:13;;;;;;;14.73;8.13;;;;;15.30;101815.00;;;;10308375;28;20278;-83
2023/10/01 07:23:21;;;;;;;15.32;7.78;;;;;15.50;101804.00;;;;10338924;28;20195;-82
2023/10/01 07:28:24;;;;;;;12.57;6.65;;;;;15.80;101813.00;;;;10301390;28;20618;-82
2023/10/01 07:33:28;;;;;;;13.30;7.35;;;;;16.00;101812.00;;;;10304112;28;20207;-82
2023/10/01 07:38:52;;;;;;;16.40;7.28;;;;;16.20;101812.00;;;;10331869;28;20219;-82
2023/10/01 07:43:55;;;;;;;17.17;8.52;;;;;16.50;101812.00;;;;10338731;28;20219;-82
2023/10/01 07:49:00;;;;;;;13.88;7.78;;;;;16.80;101806.00;;;;10346960;28;20254;-82
2023/10/01 07:54:09;;;;;;;15.35;7.55;;;;;17.10;101810.00;;;;10342068;28;20215;-83
2023/10/01 07:59:28;;;;;;;14.85;7.70;;;;;17.40;101818.00;;;;10321480;28;20960;-83
2023/10/01 08:09:54;;;;;;;12.15;7.03;;;;;18.00;101817.00;;;;10345875;28;20210;-81
2023/10/01 08:25:19;;;;;;;13.02;7.55;;;;;19.20;101834.00;;;;10351631;28;20254;-84
2023/10/01 08:30:38;;;;;;;13.82;7.63;;;;;19.80;101837.00;;;;10335171;28;20894;-84
2023/10/01 08:35:40;;;;;;;14.43;7.93;;;;;20.40;101839.00;;;;10359542;28;20196;-84
2023/10/01 08:41:02;;;;;;;14.90;8.60;;;;;20.90;101838.00;;;;10320812;28;20231;-84
2023/10/01 08:46:18;;;;;;;12.05;7.53;;;;;21.20;101830.00;;;;10323992;28;20783;-83
2023/10/01 08:51:21;;;;;;;13.80;7.68;;;;;21.50;101844.00;;;;10331296;28;20230;-84
2023/10/01 08:56:44;;;;;;;17.15;7.85;;;;;21.80;101839.00;;;;10325849;28;20258;-84
2023/10/01 09:01:46;;;;;;;12.68;7.47;;;;;22.20;101837.00;;;;10348325;28;20215;-84
2023/10/01 09:06:58;;;;;;;17.50;7.93;;;;;22.50;101841.00;;;;10340245;28;20654;-85
2023/10/01 09:12:18;;;;;;;11.57;7.82;;;;;22.80;101841.00;;;;10348227;28;20203;-85
2023/10/01 09:17:24;;;;;;;11.60;7.20;;;;;23.10;101830.00;;;;10330467;28;20253;-84
2023/10/01 09:27:33;;;;;;;13.50;7.88;;;;;23.70;101830.00;;;;10341659;28;20508;-84
2023/10/01 09:32:54;;;;;;;13.48;7.53;;;;;23.80;101827.00;;;;10646181;27;20320;-83
2023/10/01 09:38:27;;;;;;;12.32;7.68;;;;;23.90;101828.00;;;;10657827;27;20207;-82
2023/10/01 09:43:32;;;;;;;13.23;7.82;;;;;23.90;101823.00;;;;10627540;27;20207;-82
2023/10/01 09:48:36;;;;;;;13.27;7.90;;;;;23.80;101825.00;;;;10599288;27;20211;-83
2023/10/01 09:53:54;;;;;;;13.07;7.60;;;;;24.00;101823.00;;;;10584337;27;20203;-84
2023/10/01 09:59:01;;;;;;;14.00;7.72;;;;;24.00;101823.00;;;;10576878;27;20210;-83
2023/10/01 10:04:08;;;;;;;12.30;7.63;;;;;24.10;101822.00;;;;10580611;27;20203;-82
2023/10/01 10:09:27;;;;;;;14.68;7.38;;;;;24.30;101816.00;;;;10583535;27;20812;-84
2023/10/01 10:14:28;;;;;;;13.85;7.80;;;;;24.40;101816.00;;;;10628636;27;21793;-83
2023/10/01 10:19:31;;;;;;;13.35;6.90;;;;;24.80;101809.00;;;;10588480;27;20199;-83
2023/10/01 10:24:47;;;;;;;11.82;6.88;;;;;25.20;101802.00;;;;10594185;27;20195;-83
2023/10/01 10:30:00;;;;;;;12.85;6.85;;;;;25.70;101798.00;;;;10603061;27;20218;-83
2023/10/01 10:35:15;;;;;;;12.65;7.43;;;;;25.90;101797.00;;;;10587072;27;20247;-83
2023/10/01 10:45:22;;;;;;;12.15;7.05;;;;;26.60;101803.00;;;;10540246;27;20910;-86
2023/10/01 10:50:44;;;;;;;12.55;7.03;;;;;26.80;101797.00;;;;10528576;27;20218;-86
2023/10/01 10:55:53;;;;;;;13.27;7.50;;;;;27.00;101791.00;;;;10554592;28;20608;-85
2023/10/01 11:00:55;;;;;;;9.82;6.30;;;;;27.20;101794.00;;;;10552669;27;20188;-86
2023/10/01 11:06:21;;;;;;;11.55;7.47;;;;;27.40;101792.00;;;;10528971;28;20204;-85
2023/10/01 11:11:28;;;;;;;11.50;7.63;;;;;27.60;101807.00;;;;10543279;27;20227;-85
2023/10/01 11:16:49;;;;;;;12.52;7.55;;;;;27.60;101801.00;;;;10541846;27;20260;-85
2023/10/01 11:21:55;;;;;;;13.82;7.63;;;;;27.70;101792.00;;;;10584416;27;20199;-84
2023/10/01 11:27:25;;;;;;;12.52;7.82;;;;;27.70;101784.00;;;;10595654;27;20216;-86
2023/10/01 11:32:58;;;;;;;15.98;8.25;;;;;27.90;101781.00;;;;10561935;27;20242;-86
2023/10/01 11:38:14;;;;;;;16.08;8.80;;;;;27.90;101772.00;;;;10531946;28;20332;-86
2023/10/01 11:43:23;;;;;;;15.25;9.73;;;;;28.00;101769.00;;;;10559860;27;20241;-86
2023/10/01 11:48:56;;;;;;;13.05;8.60;;;;;28.10;101771.00;;;;10560496;27;20219;-86
2023/10/01 11:54:09;;;;;;;14.07;8.32;;;;;28.10;101780.00;;;;10541378;28;20197;-85
2023/10/01 11:59:18;;;;;;;15.00;9.50;;;;;28.00;101763.00;;;;10571620;27;20200;-86
2023/10/01 12:04:24;;;;;;;12.77;8.40;;;;;28.10;101758.00;;;;10538176;28;20200;-84
2023/10/01 12:09:26;;;;;;;16.20;10.18;;;;;27.90;101749.00;;;;10500097;28;20701;-84
2023/10/01 12:14:28;;;;;;;15.57;10.18;;;;;28.10;101741.00;;;;10561149;27;20283;-85
2023/10/01 12:19:32;;;;;;;16.25;10.27;;;;;28.10;101738.00;;;;10517260;27;20275;-86
2023/10/01 12:24:39;;;;;;;18.55;10.32;;;;;28.00;101727.00;;;;10538074;27;20339;-85
2023/10/01 12:29:43;;;;;;;14.45;9.43;;;;;28.10;101725.00;;;;10531702;28;20682;-85
2023/10/01 12:34:46;;;;;;;15.35;9.60;;;;;28.00;101725.00;;;;10533834;27;20196;-84
2023/10/01 12:39:47;;;;;;;14.35;9.35;;;;;28.10;101715.00;;;;10553373;27;20269;-85
2023/10/01 12:44:49;;;;;;;14.40;9.73;;;;;28.10;101708.00;;;;10548656;27;20269;-84
2023/10/01 12:49:58;;;;;;;16.70;9.82;;;;;28.10;101698.00;;;;10549391;27;20207;-86
2023/10/01 12:55:01;;;;;;;14.38;9.35;;;;;27.90;101698.00;;;;10552736;27;20196;-85
2023/10/01 13:05:27;;;;;;;14.75;9.63;;;;;27.30;101693.00;;;;10560938;27;20203;-82
2023/10/01 13:10:38;;;;;;;17.35;9.35;;;;;27.00;101691.00;;;;10543069;27;20219;-83
2023/10/01 13:15:42;;;;;;;15.05;9.63;;;;;26.90;101685.00;;;;10536238;27;20185;-81
2023/10/01 13:26:07;;;;;;;15.95;10.15;;;;;26.70;101682.00;;;;10540674;27;20386;-81
2023/10/01 13:31:08;;;;;;;14.80;9.40;;;;;27.00;101668.00;;;;10553148;27;20239;-81
2023/10/01 13:36:12;;;;;;;13.63;8.57;;;;;28.00;101675.00;;;;10560253;28;20228;-82
2023/10/01 14:13:29;;;;;;;14.15;8.77;;;;;25.10;101643.00;;;;10547449;27;20208;-82
2023/10/01 14:18:34;;;;;;;13.63;8.32;;;;;25.00;101629.00;;;;10547287;27;20544;-82
2023/10/01 14:23:45;;;;;;;17.33;9.70;;;;;25.30;101635.00;;;;10537043;27;20234;-82
2023/10/01 14:28:48;;;;;;;14.60;9.25;;;;;24.70;101638.00;;;;10519938;28;20266;-81
2023/10/01 14:33:50;;;;;;;16.30;9.32;;;;;24.60;101632.00;;;;10542030;27;20208;-82
2023/10/01 14:38:53;;;;;;;16.70;9.88;;;;;24.60;101625.00;;;;10533884;27;20207;-82
2023/10/01 14:43:56;;;;;;;16.20;9.52;;;;;24.50;101609.00;;;;10541677;27;20200;-83
2023/10/01 14:49:06;;;;;;;16.50;9.68;;;;;24.40;101619.00;;;;10540240;28;20269;-82
2023/10/01 14:54:16;;;;;;;14.68;8.57;;;;;24.20;101615.00;;;;10507201;28;20262;-83
2023/10/01 14:59:17;;;;;;;14.30;8.45;;;;;24.10;101632.00;;;;10508130;27;20318;-82
2023/10/01 15:04:20;;;;;;;15.07;9.25;;;;;24.00;101616.00;;;;10546519;27;20208;-83
2023/10/01 15:09:26;;;;;;;15.75;9.23;;;;;23.90;101616.00;;;;10515299;28;20303;-82
2023/10/01 15:14:31;;;;;;;18.52;9.88;;;;;23.90;101607.00;;;;10525201;27;20208;-83
2023/10/01 15:19:46;;;;;;;15.73;9.18;;;;;24.00;101612.00;;;;10526467;27;20778;-83
2023/10/01 15:24:49;;;;;;;14.60;8.30;;;;;23.90;101619.00;;;;10552897;27;20410;-83
2023/10/01 15:29:55;;;;;;;13.95;8.43;;;;;23.70;101616.00;;;;10513688;27;20307;-85
2023/10/01 15:34:56;;;;;;;14.30;7.85;;;;;23.60;101614.00;;;;10532024;27;20196;-83
2023/10/01 15:40:00;;;;;;;16.08;8.73;;;;;23.40;101603.00;;;;10521925;27;20193;-83
2023/10/01 15:45:15;;;;;;;13.65;8.52;;;;;23.30;101601.00;;;;10548686;27;20237;-82
2023/10/01 15:50:21;;;;;;;12.50;7.80;;;;;23.20;101598.00;;;;10511358;27;20949;-83
2023/10/01 15:55:40;;;;;;;11.57;7.57;;;;;23.10;101590.00;;;;10533448;27;20192;-85
2023/10/01 16:00:41;;;;;;;16.08;8.02;;;;;23.00;101585.00;;;;10549235;27;20242;-83
2023/10/01 16:05:47;;;;;;;11.23;7.45;;;;;22.90;101574.00;;;;10541139;27;20261;-86
2023/10/01 16:10:58;;;;;;;13.93;8.18;;;;;22.80;101577.00;;;;10528151;27;20246;-84
2023/10/01 16:16:08;;;;;;;13.45;8.63;;;;;22.70;101585.00;;;;10514754;28;20208;-86
2023/10/01 16:21:18;;;;;;;16.67;9.88;;;;;22.60;101585.00;;;;10529958;27;20269;-86
2023/10/01 16:26:21;;;;;;;17.67;9.40;;;;;22.50;101579.00;;;;10548872;28;20200;-85
2023/10/01 16:31:26;;;;;;;17.45;9.60;;;;;22.40;101582.00;;;;10496232;27;20224;-88
2023/10/01 16:36:27;;;;;;;13.70;8.63;;;;;22.30;101587.00;;;;10552158;27;20191;-87
2023/10/01 16:41:29;;;;;;;14.60;8.20;;;;;22.10;101587.00;;;;10518857;27;20216;-86
2023/10/01 16:46:31;;;;;;;14.73;9.25;;;;;22.00;101581.00;;;;10512853;27;20209;-90
2023/10/01 16:51:36;;;;;;;19.13;11.40;;;;;21.80;101594.00;;;;10539764;27;20325;-87
2023/10/01 16:56:38;;;;;;;28.77;19.27;;;;;21.60;101599.00;;;;10549073;28;20221;-87
2023/10/01 17:01:46;;;;;;;27.23;17.90;;;;;21.40;101596.00;;;;10519972;28;20199;-86
2023/10/01 17:06:51;;;;;;;14.98;10.35;;;;;21.20;101605.00;;;;10529212;27;20220;-88
2023/10/01 17:11:53;;;;;;;15.73;8.18;;;;;21.00;101617.00;;;;10566366;27;20262;-88
2023/10/01 17:17:02;;;;;;;15.18;8.40;;;;;20.90;101607.00;;;;10532114;28;20195;-87
2023/10/01 17:22:11;;;;;;;15.02;8.23;;;;;20.70;101612.00;;;;10536154;28;20196;-88
2023/10/01 17:27:18;;;;;;;14.02;8.48;;;;;20.50;101618.00;;;;10558945;28;20200;-89
2023/10/01 17:32:25;;;;;;;14.63;7.93;;;;;20.40;101607.00;;;;10583780;27;20276;-84
2023/10/01 17:37:27;;;;;;;15.90;9.18;;;;;20.30;101620.00;;;;10568712;27;20591;-85
2023/10/01 17:42:28;;;;;;;17.35;9.10;;;;;20.20;101609.00;;;;10511979;28;20923;-87
2023/10/01 17:47:31;;;;;;;14.85;8.25;;;;;20.00;101602.00;;;;10519199;27;20219;-86
2023/10/01 17:52:34;;;;;;;13.65;7.88;;;;;20.00;101604.00;;;;10533777;28;20656;-87
2023/10/01 17:57:38;;;;;;;15.25;9.23;;;;;20.00;101615.00;;;;10511047;27;20582;-86
2023/10/01 18:02:46;;;;;;;15.05;8.43;;;;;19.90;101608.00;;;;10560740;27;20283;-86
2023/10/01 18:08:03;;;;;;;14.57;8.95;;;;;19.90;101604.00;;;;10545299;28;20200;-85
2023/10/01 18:13:15;;;;;;;14.80;8.82;;;;;19.90;101599.00;;;;10542566;27;20222;-86
2023/10/01 18:18:24;;;;;;;14.40;8.52;;;;;19.80;101606.00;;;;10523170;27;20204;-86
2023/10/01 18:23:27;;;;;;;15.85;8.77;;;;;19.70;101602.00;;;;10544736;28;20295;-87
2023/10/01 18:28:30;;;;;;;15.90;9.27;;;;;19.60;101602.00;;;;10548750;27;20212;-86
2023/10/01 18:33:35;;;;;;;16.88;8.93;;;;;19.50;101617.00;;;;10554266;27;20223;-87
2023/10/01 18:38:38;;;;;;;16.65;9.88;;;;;19.40;101624.00;;;;10507172;27;20196;-87
2023/10/01 18:43:39;;;;;;;18.00;9.70;;;;;19.20;101617.00;;;;10524615;28;20258;-87
2023/10/01 18:48:40;;;;;;;19.45;9.57;;;;;19.10;101609.00;;;;10538370;28;20224;-88
2023/10/01 18:53:42;;;;;;;15.57;9.85;;;;;19.00;101614.00;;;;10551955;27;20853;-80
2023/10/01 18:58:50;;;;;;;16.10;9.70;;;;;18.90;101609.00;;;;10536940;28;20257;-80
2023/10/01 19:03:52;;;;;;;17.48;9.63;;;;;18.80;101604.00;;;;10548225;27;20287;-81
2023/10/01 19:08:53;;;;;;;15.93;8.55;;;;;18.70;101591.00;;;;10553250;27;20232;-81
2023/10/01 19:13:54;;;;;;;15.65;9.27;;;;;18.50;101599.00;;;;10539448;28;20207;-81
2023/10/01 19:18:56;;;;;;;19.80;9.52;;;;;18.30;101587.00;;;;10546811;27;20904;-81
2023/10/01 19:23:57;;;;;;;15.85;8.35;;;;;18.30;101596.00;;;;10555106;28;20226;-81
2023/10/01 19:29:01;;;;;;;14.40;8.40;;;;;18.30;101592.00;;;;10520055;28;20223;-80
2023/10/01 19:34:02;;;;;;;17.40;9.65;;;;;18.50;101595.00;;;;10541677;27;20856;-81
2023/10/01 19:39:04;;;;;;;16.20;9.07;;;;;18.50;101591.00;;;;10524741;27;20204;-81
2023/10/01 19:44:13;;;;;;;16.73;8.35;;;;;18.60;101578.00;;;;10551227;27;20215;-81
2023/10/01 19:49:18;;;;;;;15.95;8.55;;;;;18.60;101579.00;;;;10522399;27;20268;-81
2023/10/01 19:54:19;;;;;;;14.63;8.55;;;;;18.60;101570.00;;;;10519127;27;20204;-81
2023/10/01 19:59:21;;;;;;;17.23;9.02;;;;;18.60;101580.00;;;;10534650;27;20196;-78
2023/10/01 20:04:24;;;;;;;16.70;8.82;;;;;18.50;101586.00;;;;10488694;27;20213;-78
2023/10/01 20:09:32;;;;;;;18.70;8.48;;;;;18.50;101582.00;;;;10446621;28;20754;-78
2023/10/01 20:14:41;;;;;;;16.30;8.27;;;;;18.50;101597.00;;;;10463852;28;20262;-78
2023/10/01 20:19:43;;;;;;;18.25;8.80;;;;;18.40;101589.00;;;;10467798;28;20832;-77
2023/10/01 20:24:46;;;;;;;14.50;8.38;;;;;18.20;101580.00;;;;10445644;28;20874;-78
2023/10/01 20:29:48;;;;;;;13.90;7.88;;;;;18.10;101580.00;;;;10456321;28;20310;-78
2023/10/01 20:34:49;;;;;;;14.10;8.38;;;;;18.00;101566.00;;;;10458280;28;20202;-77
2023/10/01 20:39:51;;;;;;;17.83;8.13;;;;;18.00;101575.00;;;;10467932;28;20696;-77
2023/10/01 20:44:52;;;;;;;17.83;8.18;;;;;17.90;101570.00;;;;10449863;28;20293;-78
2023/10/01 20:49:54;;;;;;;13.50;8.48;;;;;17.90;101569.00;;;;10426760;28;20213;-77
2023/10/01 20:55:14;;;;;;;15.52;8.85;;;;;17.80;101557.00;;;;10463214;28;20192;-79
2023/10/01 21:00:36;;;;;;;17.02;8.93;;;;;17.70;101568.00;;;;10469000;28;20201;-78
2023/10/01 21:05:40;;;;;;;21.50;9.23;;;;;17.60;101566.00;;;;10443414;28;20201;-78
2023/10/01 21:10:41;;;;;;;18.92;9.35;;;;;17.50;101568.00;;;;10458984;28;20212;-80
2023/10/01 21:15:42;;;;;;;17.45;8.45;;;;;17.50;101559.00;;;;10456144;28;20197;-79
2023/10/01 21:20:44;;;;;;;17.80;9.18;;;;;17.40;101564.00;;;;10446895;28;20205;-80
2023/10/01 21:25:48;;;;;;;16.52;9.18;;;;;17.30;101564.00;;;;10414575;28;20269;-81
2023/10/01 21:30:49;;;;;;;17.60;9.75;;;;;17.20;101571.00;;;;10436088;28;20221;-82
2023/10/01 21:35:52;;;;;;;16.30;9.07;;;;;17.20;101566.00;;;;10454886;28;20213;-79
2023/10/01 21:40:53;;;;;;;21.05;9.48;;;;;17.10;101559.00;;;;10444676;28;20197;-79
2023/10/01 21:45:58;;;;;;;18.00;9.13;;;;;17.10;101567.00;;;;10445048;28;20879;-81
2023/10/01 21:51:01;;;;;;;18.05;10.18;;;;;17.10;101562.00;;;;10431953;28;20218;-82
2023/10/01 21:56:10;;;;;;;21.27;10.55;;;;;17.00;101560.00;;;;10423152;28;20212;-83
2023/10/01 22:06:36;;;;;;;16.70;8.98;;;;;17.00;101552.00;;;;10441274;28;20205;-82
2023/10/01 22:11:41;;;;;;;18.08;9.52;;;;;17.00;101537.00;;;;10432726;28;20213;-82
2023/10/01 22:16:52;;;;;;;20.58;9.05;;;;;16.90;101543.00;;;;10444457;28;20208;-81
2023/10/01 22:21:54;;;;;;;22.42;10.32;;;;;16.90;101544.00;;;;10448871;28;20204;-80
2023/10/01 22:26:55;;;;;;;16.98;9.27;;;;;16.80;101547.00;;;;10448146;28;20209;-80
2023/10/01 22:32:05;;;;;;;16.85;9.05;;;;;16.70;101539.00;;;;10430823;28;20789;-79
2023/10/01 22:37:09;;;;;;;19.77;9.93;;;;;16.60;101542.00;;;;10481894;28;20209;-80
2023/10/01 22:42:23;;;;;;;16.75;9.50;;;;;16.60;101538.00;;;;10436428;28;20218;-79
2023/10/01 22:47:29;;;;;;;20.10;10.18;;;;;16.60;101540.00;;;;10425523;28;20742;-79
2023/10/01 22:52:30;;;;;;;20.23;9.77;;;;;16.60;101531.00;;;;10417578;28;20214;-79
2023/10/01 22:57:43;;;;;;;20.02;9.98;;;;;16.50;101544.00;;;;10459953;28;20205;-81
2023/10/01 23:02:48;;;;;;;18.83;9.52;;;;;16.40;101546.00;;;;10431893;28;20251;-79
2023/10/01 23:07:50;;;;;;;21.05;10.07;;;;;16.40;101537.00;;;;10449400;28;20747;-79
2023/10/01 23:13:06;;;;;;;17.88;9.38;;;;;16.30;101535.00;;;;10460607;28;20924;-80
2023/10/01 23:18:35;;;;;;;20.23;9.88;;;;;16.30;101536.00;;;;10446934;28;20205;-79
2023/10/01 23:23:41;;;;;;;18.45;8.70;;;;;16.30;101537.00;;;;10441216;28;20263;-79
2023/10/01 23:29:28;;;;;;;18.48;8.95;;;;;16.30;101528.00;;;;10445744;28;20230;-79
2023/10/01 23:34:10;;;;;;;19.90;8.98;;;;;16.30;101525.00;;;;10449867;28;20272;-80
2023/10/01 23:44:29;;;;;;;18.17;9.32;;;;;16.30;101528.00;;;;10443072;28;20226;-80
2023/10/01 23:49:30;;;;;;;18.00;9.55;;;;;16.30;101532.00;;;;10427400;28;20294;-80
2023/10/01 23:54:36;;;;;;;21.38;10.70;;;;;16.30;101526.00;;;;10431129;28;20209;-80
2023/10/01 23:59:50;;;;;;;18.90;9.68;;;;;16.30;101519.00;;;;10427340;28;20836;-80
